Time;durP1;ratioP1;P1;durP2;ratioP2;P2;SDS_P1;SDS_P2;PMS_P1;PMS_P2;Temp;Humidity;BMP_temperature;BMP_pressure;BME280_temperature;BME280_humidity;BME280_pressure;Samples;Min_cycle;Max_cycle;Signal;HPM_P1;HPM_P2
2022/05/10 00:01:33;;;;;;;5.75;4.50;;;;;;;8.90;88.50;99250.78;4219920;28;20428;-71
2022/05/10 00:03:37;;;;;;;7.93;4.22;;;;;;;8.88;88.25;99247.59;4220113;28;20036;-71
2022/05/10 00:05:40;;;;;;;6.68;4.45;;;;;;;8.85;88.20;99239.19;4223077;27;20047;-71
2022/05/10 00:07:41;;;;;;;5.50;4.03;;;;;;;8.79;89.20;99240.59;4221287;27;20039;-71
2022/05/10 00:09:41;;;;;;;7.30;4.22;;;;;;;8.75;89.89;99250.69;4223732;28;20035;-71
2022/05/10 00:11:42;;;;;;;6.75;3.95;;;;;;;8.73;89.59;99242.78;4220719;27;20094;-71
2022/05/10 00:13:42;;;;;;;6.15;4.38;;;;;;;8.70;89.74;99251.75;4219495;28;20051;-71
2022/05/10 00:15:43;;;;;;;6.30;4.20;;;;;;;8.66;89.51;99240.59;4219341;28;20043;-71
2022/05/10 00:17:44;;;;;;;9.68;4.53;;;;;;;8.62;89.16;99238.91;4219668;28;20040;-71
2022/05/10 00:19:44;;;;;;;6.50;4.28;;;;;;;8.61;88.97;99235.34;4224834;28;20371;-71
2022/05/10 00:21:47;;;;;;;6.40;4.22;;;;;;;8.57;89.93;99245.44;4222370;27;20047;-71
2022/05/10 00:23:47;;;;;;;5.53;4.68;;;;;;;8.52;90.58;99239.34;4221818;27;20498;-71
2022/05/10 00:25:48;;;;;;;9.25;4.80;;;;;;;8.51;91.36;99244.06;4227713;27;20036;-71
2022/05/10 00:27:48;;;;;;;7.38;5.03;;;;;;;8.45;92.39;99239.94;4223809;27;20039;-71
2022/05/10 00:29:48;;;;;;;6.90;4.93;;;;;;;8.46;93.42;99240.75;4228371;27;20035;-71
2022/05/10 00:31:49;;;;;;;6.43;4.93;;;;;;;8.42;93.79;99232.34;4224217;27;20086;-71
2022/05/10 00:33:49;;;;;;;6.10;4.65;;;;;;;8.41;93.24;99236.25;4222978;27;20044;-71
2022/05/10 00:35:49;;;;;;;7.13;4.28;;;;;;;8.40;91.25;99224.41;4224059;27;20036;-71
2022/05/10 00:37:52;;;;;;;8.10;4.72;;;;;;;8.36;91.48;99231.78;4223318;28;20458;-71
2022/05/10 00:39:52;;;;;;;6.85;4.40;;;;;;;8.31;92.90;99222.91;4221695;27;20074;-71
2022/05/10 00:42:03;;;;;;;7.20;4.65;;;;;;;8.24;93.07;99219.91;4222733;28;20202;-71
2022/05/10 00:44:12;;;;;;;6.25;4.80;;;;;;;8.22;93.84;99222.22;4222091;27;20054;-71
2022/05/10 00:46:17;;;;;;;7.93;4.60;;;;;;;8.21;94.60;99221.41;4227576;27;20114;-71
2022/05/10 00:48:27;;;;;;;6.38;4.82;;;;;;;8.20;94.31;99227.28;4228380;27;20363;-71
2022/05/10 00:50:45;;;;;;;6.43;5.20;;;;;;;8.16;94.50;99222.44;4223058;27;20621;-71
2022/05/10 00:52:59;;;;;;;6.68;4.63;;;;;;;8.15;93.80;99222.78;4222860;28;20069;-71
2022/05/10 00:55:11;;;;;;;8.90;4.80;;;;;;;8.11;93.93;99214.41;4222442;27;20078;-71
2022/05/10 00:57:37;;;;;;;9.50;4.80;;;;;;;8.09;93.07;99216.69;4222650;27;20039;-71
2022/05/10 00:59:51;;;;;;;4.65;4.03;;;;;;;8.11;90.81;99200.63;4225547;27;20078;-71
2022/05/10 01:01:59;;;;;;;6.72;4.20;;;;;;;8.09;91.35;99199.34;4225394;27;20066;-71
2022/05/10 01:04:25;;;;;;;6.72;4.97;;;;;;;8.01;92.04;99197.50;4221933;27;20036;-71
2022/05/10 01:06:36;;;;;;;9.43;5.20;;;;;;;7.93;93.80;99207.47;4226195;27;20043;-71
2022/05/10 01:09:07;;;;;;;7.63;4.90;;;;;;;7.91;94.64;99206.22;4223345;27;20036;-71
2022/05/10 01:11:15;;;;;;;10.10;5.20;;;;;;;7.88;95.37;99208.53;4225024;27;20171;-71
2022/05/10 01:13:37;;;;;;;8.15;5.60;;;;;;;7.89;95.84;99206.56;4225196;27;20084;-71
2022/05/10 01:15:40;;;;;;;6.28;4.40;;;;;;;7.85;95.56;99195.41;4224355;27;20103;-71
2022/05/10 01:17:40;;;;;;;5.07;4.20;;;;;;;7.88;92.96;99197.50;4228122;27;20054;-71
2022/05/10 01:19:43;;;;;;;6.80;5.00;;;;;;;7.87;93.49;99187.63;4223646;27;20039;-71
2022/05/10 01:22:16;;;;;;;9.43;6.05;;;;;;;7.84;95.12;99193.81;4224480;27;20479;-71
2022/05/10 01:24:48;;;;;;;6.50;4.90;;;;;;;7.78;97.00;99184.19;4228489;27;20039;-71
2022/05/10 01:26:49;;;;;;;9.35;5.00;;;;;;;7.74;96.99;99186.00;4223420;27;20206;-71
2022/05/10 01:28:56;;;;;;;6.30;5.13;;;;;;;7.71;97.00;99183.94;4223254;27;20047;-71
2022/05/10 01:31:02;;;;;;;6.43;5.07;;;;;;;7.69;97.36;99177.94;4227163;27;20237;-71
2022/05/10 01:35:27;;;;;;;7.82;5.20;;;;;;;7.55;98.47;99181.03;4221153;27;20391;-71
2022/05/10 01:37:31;;;;;;;6.72;4.80;;;;;;;7.54;97.94;99176.66;4223694;27;20040;-71
2022/05/10 01:39:47;;;;;;;9.65;5.32;;;;;;;7.60;98.95;99172.53;4225848;27;20046;-71
2022/05/10 01:41:57;;;;;;;5.13;4.47;;;;;;;7.55;99.35;99166.47;4225657;27;20352;-71
2022/05/10 01:44:10;;;;;;;8.30;4.90;;;;;;;7.53;99.68;99164.06;4223761;27;20039;-71
2022/05/10 01:46:12;;;;;;;;;;;;;;;7.53;99.91;99166.81;4226077;27;20470;-71
2022/05/10 01:48:17;;;;;;;8.43;4.67;;;;;;;7.48;99.49;99174.47;4221995;27;19915;-71
2022/05/10 01:50:23;;;;;;;6.22;5.10;;;;;;;7.41;99.57;99160.44;4221680;27;20399;-71
2022/05/10 01:52:31;;;;;;;8.00;5.45;;;;;;;7.44;99.45;99179.03;4229494;27;20132;-71
2022/05/10 01:54:41;;;;;;;6.47;5.38;;;;;;;7.39;98.61;99165.50;4223429;27;20107;-71
2022/05/10 01:56:42;;;;;;;8.27;6.35;;;;;;;7.33;98.49;99168.47;4224248;27;20071;-71
2022/05/10 01:58:44;;;;;;;11.50;6.85;;;;;;;7.24;97.62;99166.94;4224341;27;20520;-71
2022/05/10 02:00:57;;;;;;;9.75;5.85;;;;;;;7.19;97.88;99172.66;4224815;27;20045;-71
2022/05/10 02:03:03;;;;;;;8.52;6.55;;;;;;;7.09;98.77;99167.56;4222618;27;20051;-71
2022/05/10 02:05:09;;;;;;;12.05;6.57;;;;;;;7.02;98.70;99163.41;4225617;27;20059;-71
2022/05/10 02:07:19;;;;;;;10.07;6.70;;;;;;;7.01;99.74;99174.75;4222514;27;20458;-71
2022/05/10 02:09:33;;;;;;;9.88;7.57;;;;;;;6.97;100.00;99168.34;4222598;27;20498;-71
2022/05/10 02:11:39;;;;;;;13.68;7.60;;;;;;;6.99;99.87;99168.78;4224925;27;20438;-71
2022/05/10 02:13:50;;;;;;;10.75;7.45;;;;;;;6.96;100.00;99158.47;4223369;27;20086;-71
2022/05/10 02:15:57;;;;;;;10.15;7.45;;;;;;;6.93;100.00;99159.94;4226140;27;20038;-71
2022/05/10 02:18:08;;;;;;;9.45;6.78;;;;;;;6.91;100.00;99164.19;4222599;27;20028;-71
2022/05/10 02:20:22;;;;;;;10.02;7.50;;;;;;;6.87;100.00;99165.97;4223313;27;20038;-71
2022/05/10 02:22:32;;;;;;;9.07;6.35;;;;;;;6.84;100.00;99164.72;4221754;27;20040;-71
2022/05/10 02:24:38;;;;;;;12.43;7.55;;;;;;;6.86;100.00;99167.91;4223562;27;20356;-71
2022/05/10 02:26:47;;;;;;;12.00;8.10;;;;;;;6.85;100.00;99160.81;4225112;27;20040;-71
2022/05/10 02:28:51;;;;;;;10.73;6.47;;;;;;;6.86;100.00;99164.38;4225566;27;20047;-71
2022/05/10 02:30:56;;;;;;;9.85;7.40;;;;;;;6.86;100.00;99167.13;4223785;27;20463;-71
2022/05/10 02:33:07;;;;;;;12.55;7.97;;;;;;;6.83;100.00;99162.31;4225909;27;20039;-71
2022/05/10 02:35:10;;;;;;;11.45;6.53;;;;;;;6.81;100.00;99156.34;4223089;27;20310;-71
2022/05/10 02:37:12;;;;;;;15.35;7.30;;;;;;;6.79;100.00;99162.19;4225001;27;20088;-71
2022/05/10 02:39:13;;;;;;;7.82;6.28;;;;;;;6.73;100.00;99158.03;4227803;27;20047;-71
2022/05/10 02:41:21;;;;;;;9.07;6.57;;;;;;;6.75;100.00;99158.47;4223422;27;20560;-71
2022/05/10 02:43:28;;;;;;;11.82;7.55;;;;;;;6.70;100.00;99156.75;4219326;27;20195;-71
2022/05/10 02:45:28;;;;;;;9.70;6.63;;;;;;;6.72;100.00;99148.97;4225478;27;20126;-71
2022/05/10 02:47:32;;;;;;;9.43;6.95;;;;;;;6.72;98.99;99151.72;4222983;27;20073;-71
2022/05/10 02:49:34;;;;;;;11.45;7.07;;;;;;;6.70;98.92;99151.25;4221871;27;20043;-71
2022/05/10 02:51:35;;;;;;;14.18;7.35;;;;;;;6.68;99.80;99144.47;4224184;27;20036;-71
2022/05/10 02:53:35;;;;;;;8.93;6.85;;;;;;;6.68;100.00;99148.00;4223751;27;20048;-71
2022/05/10 02:55:41;;;;;;;9.95;7.00;;;;;;;6.68;100.00;99150.75;4219819;27;20036;-71
2022/05/10 02:57:44;;;;;;;9.25;6.93;;;;;;;6.66;99.97;99142.06;4224124;27;20043;-71
2022/05/10 02:59:45;;;;;;;11.50;6.75;;;;;;;6.68;99.92;99148.00;4220928;27;20048;-71
2022/05/10 03:01:57;;;;;;;11.82;6.28;;;;;;;6.64;99.28;99144.34;4221851;27;20480;-71
2022/05/10 03:03:57;;;;;;;12.77;7.47;;;;;;;6.66;98.53;99144.00;4221830;27;20387;-71
2022/05/10 03:05:58;;;;;;;7.85;5.93;;;;;;;6.65;98.92;99150.63;4223720;27;20047;-71
2022/05/10 03:07:59;;;;;;;8.98;6.15;;;;;;;6.59;99.23;99139.03;4222977;27;20035;-71
2022/05/10 03:09:59;;;;;;;11.27;6.15;;;;;;;6.65;98.54;99143.19;4223998;27;20040;-71
2022/05/10 03:12:04;;;;;;;7.50;6.35;;;;;;;6.70;96.72;99144.91;4222705;27;20050;-71
2022/05/10 03:14:05;;;;;;;8.43;5.55;;;;;;;6.71;95.74;99141.84;4221642;27;20039;-71
2022/05/10 03:16:06;;;;;;;9.57;6.03;;;;;;;6.68;96.29;99142.50;4225764;27;20039;-71
2022/05/10 03:18:07;;;;;;;8.85;6.07;;;;;;;6.64;96.32;99140.78;4226729;27;20020;-71
2022/05/10 03:20:08;;;;;;;10.63;5.85;;;;;;;6.56;96.75;99134.22;4221593;27;20482;-71
2022/05/10 03:22:10;;;;;;;9.45;6.05;;;;;;;6.52;96.74;99140.69;4222832;27;20372;-71
2022/05/10 03:24:10;;;;;;;10.32;6.15;;;;;;;6.48;96.09;99138.63;4222616;27;20024;-71
2022/05/10 03:26:13;;;;;;;8.82;5.78;;;;;;;6.48;96.57;99137.84;4222971;27;20237;-71
2022/05/10 03:28:14;;;;;;;9.82;6.00;;;;;;;6.45;96.06;99133.81;4225510;27;20027;-71
2022/05/10 03:30:14;;;;;;;7.15;5.40;;;;;;;6.39;96.39;99137.09;4222278;27;20024;-71
2022/05/10 03:32:15;;;;;;;9.18;5.72;;;;;;;6.35;96.75;99136.13;4222328;27;20027;-71
2022/05/10 03:36:33;;;;;;;9.93;5.43;;;;;;;6.28;97.38;99136.66;4224739;27;20092;-71
2022/05/10 03:38:36;;;;;;;9.43;5.70;;;;;;;6.26;98.73;99135.41;4222700;27;20267;-71
2022/05/10 03:40:36;;;;;;;8.95;5.28;;;;;;;6.22;99.37;99135.28;4224028;27;20054;-71
2022/05/10 03:42:47;;;;;;;8.40;5.20;;;;;;;6.19;99.94;99133.97;4221404;27;20510;-71
2022/05/10 03:44:52;;;;;;;9.45;5.53;;;;;;;6.19;99.92;99131.22;4222964;27;20095;-71
2022/05/10 03:46:52;;;;;;;9.38;5.85;;;;;;;6.20;100.00;99127.34;4223493;27;20035;-71
2022/05/10 03:48:53;;;;;;;10.48;6.28;;;;;;;6.24;100.00;99130.25;4222059;27;20047;-71
2022/05/10 03:50:54;;;;;;;9.50;6.30;;;;;;;6.27;100.00;99129.56;4222519;27;20063;-71
2022/05/10 03:52:54;;;;;;;9.90;6.38;;;;;;;6.29;100.00;99129.22;4224505;27;20074;-71
2022/05/10 03:54:54;;;;;;;13.02;6.82;;;;;;;6.29;100.00;99138.28;4219747;27;20048;-71
2022/05/10 03:56:55;;;;;;;7.72;5.70;;;;;;;6.28;100.00;99136.66;4218198;27;20058;-70
2022/05/10 03:58:55;;;;;;;9.20;6.50;;;;;;;6.27;100.00;99131.50;4221114;27;20559;-71
2022/05/10 04:00:55;;;;;;;9.77;6.22;;;;;;;6.24;100.00;99129.44;4225922;27;20039;-71
2022/05/10 04:02:57;;;;;;;10.70;5.72;;;;;;;6.25;100.00;99131.03;4224198;27;20547;-71
2022/05/10 04:04:57;;;;;;;10.65;6.35;;;;;;;6.20;100.00;99127.34;4220499;27;20047;-71
2022/05/10 04:06:58;;;;;;;9.93;6.47;;;;;;;6.24;100.00;99132.97;4220420;27;20075;-71
2022/05/10 04:08:58;;;;;;;9.50;6.78;;;;;;;6.21;100.00;99130.91;4225753;27;20088;-71
2022/05/10 04:11:07;;;;;;;9.10;6.18;;;;;;;6.30;100.00;99125.34;4220058;27;20343;-71
2022/05/10 04:13:10;;;;;;;12.15;7.35;;;;;;;6.31;99.94;99136.00;4218714;28;20464;-71
2022/05/10 04:15:14;;;;;;;9.82;6.88;;;;;;;6.35;100.00;99130.63;4224399;28;20050;-71
2022/05/10 04:17:14;;;;;;;10.02;7.07;;;;;;;6.38;100.00;99136.28;4221630;28;20035;-71
2022/05/10 04:19:15;;;;;;;10.65;6.78;;;;;;;6.43;100.00;99135.28;4225092;28;20425;-71
2022/05/10 04:21:15;;;;;;;8.35;5.63;;;;;;;6.47;99.81;99136.22;4220503;27;20497;-71
2022/05/10 04:23:16;;;;;;;8.57;6.35;;;;;;;6.50;99.60;99132.78;4220249;27;20390;-71
2022/05/10 04:25:18;;;;;;;7.97;6.25;;;;;;;6.60;97.69;99132.38;4224531;27;20396;-71
2022/05/10 04:27:18;;;;;;;9.00;6.28;;;;;;;6.67;97.08;99140.09;4222654;28;20054;-71
2022/05/10 04:29:18;;;;;;;10.30;6.45;;;;;;;6.78;96.89;99133.03;4225228;27;20471;-71
2022/05/10 04:31:19;;;;;;;9.80;6.55;;;;;;;6.84;95.35;99131.69;4225143;28;20035;-71
2022/05/10 04:33:19;;;;;;;10.25;6.90;;;;;;;6.94;95.80;99135.97;4221779;27;20047;-71
2022/05/10 04:35:19;;;;;;;8.55;6.20;;;;;;;6.95;97.35;99137.59;4219615;28;20119;-71
2022/05/10 04:37:20;;;;;;;9.35;6.15;;;;;;;7.04;96.28;99127.34;4225391;28;20035;-71
2022/05/10 04:39:20;;;;;;;9.27;7.03;;;;;;;7.14;94.84;99124.16;4220646;28;20044;-71
2022/05/10 04:41:30;;;;;;;9.25;6.65;;;;;;;7.21;95.62;99121.66;4221811;27;20552;-71
2022/05/10 04:43:31;;;;;;;9.40;7.00;;;;;;;7.30;95.74;99127.06;4218591;28;20253;-71
2022/05/10 04:45:32;;;;;;;9.48;7.10;;;;;;;7.37;96.67;99129.25;4222324;28;20871;-71
2022/05/10 04:47:33;;;;;;;9.73;6.50;;;;;;;7.42;96.90;99126.25;4220327;27;20068;-71
2022/05/10 04:49:33;;;;;;;9.32;7.00;;;;;;;7.47;97.04;99131.56;4218237;28;20047;-71
2022/05/10 04:51:35;;;;;;;9.73;7.30;;;;;;;7.55;97.27;99128.72;4218956;28;20496;-71
2022/05/10 04:53:35;;;;;;;10.63;7.22;;;;;;;7.62;96.08;99133.66;4221339;27;20048;-71
2022/05/10 04:55:35;;;;;;;12.15;6.70;;;;;;;7.65;94.66;99124.69;4155914;27;20103;-71
2022/05/10 04:57:37;;;;;;;9.63;7.05;;;;;;;7.73;94.49;99121.03;4223775;27;20360;-71
2022/05/10 04:59:37;;;;;;;9.13;6.35;;;;;;;7.82;94.55;99126.44;4221085;27;20403;-70
2022/05/10 05:01:38;;;;;;;9.30;7.03;;;;;;;7.90;94.93;99122.75;4219263;28;20047;-70
2022/05/10 05:03:43;;;;;;;9.38;6.57;;;;;;;7.99;94.85;99126.19;4225769;28;20050;-71
2022/05/10 05:05:43;;;;;;;11.45;6.75;;;;;;;8.04;93.93;99119.66;4219034;27;20053;-71
2022/05/10 05:07:44;;;;;;;12.55;6.60;;;;;;;8.12;92.00;99124.25;4221248;27;20047;-71
2022/05/10 05:09:44;;;;;;;7.15;5.90;;;;;;;8.21;91.82;99126.88;4221015;27;20248;-71
2022/05/10 05:11:44;;;;;;;9.13;6.45;;;;;;;8.27;92.95;99131.78;4222963;27;20506;-71
2022/05/10 05:13:45;;;;;;;8.18;6.70;;;;;;;8.34;93.16;99121.00;4228819;27;20050;-71
2022/05/10 05:15:45;;;;;;;7.78;6.32;;;;;;;8.43;92.65;99129.97;4227574;27;20399;-71
2022/05/10 05:17:45;;;;;;;10.35;7.40;;;;;;;8.53;92.42;99133.41;4221495;28;20253;-71
2022/05/10 05:19:46;;;;;;;11.02;6.72;;;;;;;8.61;92.26;99136.03;4220895;27;20048;-71
2022/05/10 05:21:46;;;;;;;9.15;6.10;;;;;;;8.71;92.18;99131.97;4222958;27;20051;-71
2022/05/10 05:23:46;;;;;;;8.52;6.82;;;;;;;8.77;90.82;99122.31;4221585;27;20048;-71
2022/05/10 05:25:47;;;;;;;9.32;7.40;;;;;;;8.88;90.99;99128.94;4223219;27;20032;-71
2022/05/10 05:27:48;;;;;;;9.35;7.28;;;;;;;8.99;90.72;99132.78;4224211;27;20040;-71
2022/05/10 05:29:48;;;;;;;7.30;6.30;;;;;;;9.07;91.40;99130.22;4224391;27;20051;-71
2022/05/10 05:31:51;;;;;;;10.15;7.00;;;;;;;9.16;90.71;99120.63;4225539;27;20054;-71
2022/05/10 05:33:52;;;;;;;10.98;7.68;;;;;;;9.29;91.73;99137.94;4224010;27;20690;-71
2022/05/10 05:35:52;;;;;;;10.13;6.68;;;;;;;9.38;91.38;99126.72;4226872;27;20348;-71
2022/05/10 05:37:54;;;;;;;13.02;6.75;;;;;;;9.48;91.52;99134.50;4224484;27;20060;-71
2022/05/10 05:39:54;;;;;;;14.50;7.85;;;;;;;9.55;91.20;99131.91;4224858;27;20036;-71
2022/05/10 05:41:54;;;;;;;10.55;6.63;;;;;;;9.66;91.68;99134.94;4223820;27;20661;-71
2022/05/10 05:43:54;;;;;;;8.90;7.10;;;;;;;9.77;91.24;99136.03;4222106;27;20035;-71
2022/05/10 05:45:55;;;;;;;9.07;7.03;;;;;;;9.87;91.71;99127.19;4222373;27;20390;-71
2022/05/10 05:47:55;;;;;;;10.77;6.88;;;;;;;9.97;91.63;99126.66;4221311;27;20040;-71
2022/05/10 05:49:56;;;;;;;8.25;7.22;;;;;;;10.08;91.02;99124.94;4225815;27;20205;-71
2022/05/10 05:51:58;;;;;;;8.88;6.90;;;;;;;10.21;89.70;99124.84;4224744;27;20088;-71
2022/05/10 05:53:58;;;;;;;9.95;6.18;;;;;;;10.32;88.75;99121.19;4224439;27;20153;-71
2022/05/10 05:56:03;;;;;;;10.30;7.13;;;;;;;10.41;88.77;99124.53;4225869;27;20502;-71
2022/05/10 05:58:03;;;;;;;10.15;6.57;;;;;;;10.53;88.21;99126.41;4223367;27;20054;-71
2022/05/10 06:00:09;;;;;;;11.27;7.60;;;;;;;10.65;88.72;99119.91;4222401;27;20046;-71
2022/05/10 06:02:15;;;;;;;12.38;7.05;;;;;;;10.73;86.72;99120.88;4227400;27;20035;-71
2022/05/10 06:04:16;;;;;;;8.65;6.82;;;;;;;10.83;85.89;99125.81;4222654;27;20455;-71
2022/05/10 06:06:16;;;;;;;10.80;7.47;;;;;;;10.93;86.08;99126.06;4223572;27;20079;-71
2022/05/10 06:08:18;;;;;;;9.27;6.50;;;;;;;11.01;85.64;99117.91;4227021;27;20363;-71
2022/05/10 06:10:19;;;;;;;9.98;7.47;;;;;;;11.08;86.43;99121.59;4222629;27;20028;-71
2022/05/10 06:12:20;;;;;;;8.93;6.85;;;;;;;11.20;86.87;99115.09;4224575;27;20619;-71
2022/05/10 06:14:20;;;;;;;10.27;7.40;;;;;;;11.27;87.09;99125.53;4225352;27;20341;-71
2022/05/10 06:16:21;;;;;;;13.45;7.85;;;;;;;11.36;87.57;99120.53;4223997;27;20058;-71
2022/05/10 06:18:21;;;;;;;10.93;7.63;;;;;;;11.46;87.54;99117.16;4223493;27;20091;-70
2022/05/10 06:20:24;;;;;;;11.27;7.55;;;;;;;11.52;86.77;99118.47;4221453;27;20123;-71
2022/05/10 06:22:24;;;;;;;;;;;;;;;11.62;86.28;99126.16;4222702;27;20071;-71
2022/05/10 06:24:26;;;;;;;9.30;6.77;;;;;;;11.70;85.45;99116.00;4225725;27;19916;-71
2022/05/10 06:26:27;;;;;;;9.23;8.32;;;;;;;11.86;85.65;99119.47;4224402;27;20273;-71
2022/05/10 06:28:29;;;;;;;11.00;8.13;;;;;;;12.01;84.82;99109.41;4221030;27;20539;-71
2022/05/10 06:30:29;;;;;;;11.75;7.97;;;;;;;12.13;84.42;99108.41;4221787;27;20434;-71
2022/05/10 06:32:31;;;;;;;10.55;7.30;;;;;;;12.26;83.48;99113.38;4224471;27;20071;-70
2022/05/10 06:34:31;;;;;;;12.85;7.18;;;;;;;12.37;80.14;99111.53;4223013;27;20044;-71
2022/05/10 06:36:32;;;;;;;12.48;6.72;;;;;;;12.51;81.67;99105.41;4224206;27;20104;-71
2022/05/10 06:38:34;;;;;;;16.92;8.20;;;;;;;12.65;83.62;99102.00;4222331;27;20400;-71
2022/05/10 06:40:34;;;;;;;9.57;7.75;;;;;;;12.82;85.22;99112.53;4223587;27;20032;-71
2022/05/10 06:42:35;;;;;;;10.75;7.40;;;;;;;12.96;82.64;99100.81;4225358;27;20127;-71
2022/05/10 06:44:35;;;;;;;9.07;7.10;;;;;;;13.08;83.52;99105.31;4221100;27;20036;-71
2022/05/10 06:46:37;;;;;;;12.88;8.18;;;;;;;13.20;82.71;99113.41;4226209;27;20297;-71
2022/05/10 06:48:39;;;;;;;8.10;6.90;;;;;;;13.28;82.17;99100.41;4223836;27;20127;-71
2022/05/10 06:50:41;;;;;;;10.15;8.65;;;;;;;13.41;83.29;99096.19;4222240;27;20429;-71
2022/05/10 06:52:42;;;;;;;10.82;7.47;;;;;;;13.47;81.75;99101.00;4223055;27;20654;-71
2022/05/10 06:54:42;;;;;;;8.90;6.40;;;;;;;13.53;79.34;99093.09;4225076;27;20083;-71
2022/05/10 06:56:43;;;;;;;7.68;6.25;;;;;;;13.61;79.81;99099.53;4215946;27;20329;-71
2022/05/10 06:58:44;;;;;;;10.57;6.93;;;;;;;13.71;80.89;99096.03;4220899;27;20562;-71
2022/05/10 07:00:44;;;;;;;10.05;7.63;;;;;;;13.80;83.00;99095.72;4229242;27;20100;-71
2022/05/10 07:02:45;;;;;;;11.95;7.97;;;;;;;13.85;83.11;99096.19;4221962;27;20123;-71
2022/05/10 07:04:45;;;;;;;14.90;8.93;;;;;;;13.83;84.14;99086.63;4220784;27;20047;-71
2022/05/10 07:06:46;;;;;;;13.75;9.32;;;;;;;13.85;84.59;99084.25;4220027;27;20047;-71
2022/05/10 07:08:47;;;;;;;13.50;8.45;;;;;;;13.84;84.31;99083.47;4219594;27;20069;-71
2022/05/10 07:10:47;;;;;;;10.38;8.00;;;;;;;13.85;83.06;99096.19;4220331;27;20048;-71
2022/05/10 07:12:47;;;;;;;9.52;7.45;;;;;;;13.82;82.83;99085.84;4220109;28;20045;-71
2022/05/10 07:14:48;;;;;;;12.23;8.07;;;;;;;13.88;82.44;99089.03;4219098;27;20074;-71
2022/05/10 07:16:48;;;;;;;10.90;8.73;;;;;;;13.92;80.66;99084.31;4220929;27;20593;-71
2022/05/10 07:18:49;;;;;;;11.57;7.82;;;;;;;14.01;82.08;99077.22;4219862;27;20471;-71
2022/05/10 07:20:50;;;;;;;10.48;8.13;;;;;;;14.06;82.08;99074.06;4221249;27;20054;-71
2022/05/10 07:22:51;;;;;;;14.23;7.38;;;;;;;14.10;82.54;99078.88;4221499;27;20436;-71
2022/05/10 07:24:51;;;;;;;12.93;8.38;;;;;;;14.12;83.78;99071.72;4219624;27;20401;-71
2022/05/10 07:26:52;;;;;;;13.48;8.38;;;;;;;14.21;83.02;99077.75;4221523;27;20043;-71
2022/05/10 07:28:52;;;;;;;12.63;8.77;;;;;;;14.32;84.02;99075.06;4221013;27;20131;-71
2022/05/10 07:30:52;;;;;;;14.30;8.68;;;;;;;14.44;84.27;99080.28;4226567;27;20115;-71
2022/05/10 07:32:53;;;;;;;12.02;9.13;;;;;;;14.58;85.34;99080.41;4224894;27;20491;-71
2022/05/10 07:34:54;;;;;;;14.73;9.32;;;;;;;14.71;84.64;99080.03;4222629;27;20096;-71
2022/05/10 07:36:55;;;;;;;11.55;9.50;;;;;;;14.85;83.69;99080.91;4219882;28;20134;-71
2022/05/10 07:38:55;;;;;;;16.20;10.63;;;;;;;14.97;83.59;99079.75;4219438;27;20052;-71
2022/05/10 07:40:56;;;;;;;11.68;8.35;;;;;;;15.10;82.01;99077.41;4224593;27;20071;-71
2022/05/10 07:42:56;;;;;;;13.65;8.88;;;;;;;15.25;82.48;99081.03;4227723;27;20490;-71
2022/05/10 07:44:56;;;;;;;12.02;9.60;;;;;;;15.30;81.90;99073.06;4221470;27;20039;-71
2022/05/10 07:46:57;;;;;;;13.60;9.35;;;;;;;15.38;81.74;99065.50;4222160;27;20567;-71
2022/05/10 07:48:58;;;;;;;12.90;8.80;;;;;;;15.48;79.75;99066.75;4219274;28;20040;-71
2022/05/10 07:51:01;;;;;;;13.75;9.40;;;;;;;15.58;78.26;99069.53;4222781;27;20069;-71
2022/05/10 07:53:06;;;;;;;14.77;10.10;;;;;;;15.72;78.06;99066.78;4219716;27;20047;-71
2022/05/10 07:55:08;;;;;;;15.55;9.10;;;;;;;15.79;77.02;99068.75;4228541;27;20051;-71
2022/05/10 07:57:08;;;;;;;9.10;8.18;;;;;;;15.84;78.99;99070.38;4220977;28;20044;-71
2022/05/10 07:59:08;;;;;;;11.10;9.10;;;;;;;15.95;78.11;99074.72;4226383;27;20058;-71
2022/05/10 08:01:09;;;;;;;12.95;8.80;;;;;;;16.04;79.24;99060.38;4220431;28;20055;-71
2022/05/10 08:03:12;;;;;;;13.13;9.35;;;;;;;16.13;77.13;99060.75;4224561;28;20360;-71
2022/05/10 08:05:18;;;;;;;10.77;8.27;;;;;;;16.26;75.57;99061.16;4219336;28;20086;-71
2022/05/10 08:07:19;;;;;;;19.98;9.70;;;;;;;16.37;75.07;99053.53;4229452;27;20130;-71
2022/05/10 08:09:19;;;;;;;10.00;8.43;;;;;;;16.44;75.31;99059.09;4218642;27;20078;-71
2022/05/10 08:11:20;;;;;;;9.82;8.38;;;;;;;16.57;75.19;99059.47;4223801;27;20544;-71
2022/05/10 08:13:25;;;;;;;9.18;7.90;;;;;;;16.65;73.72;99047.06;4219744;28;20413;-71
2022/05/10 08:15:25;;;;;;;13.32;7.93;;;;;;;16.78;72.94;99047.44;4220068;28;20052;-71
2022/05/10 08:17:26;;;;;;;11.35;7.85;;;;;;;16.84;73.81;99043.03;4221611;28;20268;-71
2022/05/10 08:19:26;;;;;;;9.60;7.88;;;;;;;16.98;73.55;99039.38;4222823;27;20467;-71
2022/05/10 08:21:26;;;;;;;9.32;7.15;;;;;;;17.09;72.70;99043.69;4222119;28;20489;-71
2022/05/10 08:23:29;;;;;;;10.15;7.68;;;;;;;17.21;73.34;99047.22;4222682;28;20658;-71
2022/05/10 08:25:29;;;;;;;10.02;8.05;;;;;;;17.41;73.62;99040.69;4221317;27;20047;-71
2022/05/10 08:27:30;;;;;;;8.32;7.43;;;;;;;17.57;72.17;99040.19;4219532;28;20036;-71
2022/05/10 08:29:30;;;;;;;12.20;8.32;;;;;;;17.71;72.73;99030.91;4225836;28;20209;-71
2022/05/10 08:31:30;;;;;;;11.27;7.78;;;;;;;17.83;71.04;99038.00;4219738;28;20638;-71
2022/05/10 08:33:34;;;;;;;10.75;7.82;;;;;;;17.94;68.22;99035.88;4225958;28;20039;-71
2022/05/10 08:35:34;;;;;;;7.90;6.70;;;;;;;18.11;67.92;99040.53;4217945;28;20052;-71
2022/05/10 08:37:37;;;;;;;8.05;6.32;;;;;;;18.19;68.47;99032.84;4222420;27;20096;-72
2022/05/10 08:39:37;;;;;;;7.95;6.90;;;;;;;18.36;67.28;99028.25;4220822;27;20039;-71
2022/05/10 08:41:53;;;;;;;11.05;6.35;;;;;;;18.55;65.70;99032.47;4222840;27;20102;-71
2022/05/10 08:44:20;;;;;;;8.45;6.10;;;;;;;18.73;65.98;99027.47;4228104;27;20394;-72
2022/05/10 08:46:27;;;;;;;9.57;5.88;;;;;;;18.91;64.89;99028.03;4214757;27;20024;-72
2022/05/10 08:48:29;;;;;;;8.18;6.00;;;;;;;19.16;61.85;99027.69;4222110;27;20142;-72
2022/05/10 08:50:31;;;;;;;6.90;6.28;;;;;;;19.29;60.21;99020.28;4222613;27;20050;-72
2022/05/10 08:52:34;;;;;;;6.70;6.00;;;;;;;19.43;60.03;99022.06;4230896;27;20130;-72
2022/05/10 08:54:37;;;;;;;9.10;6.10;;;;;;;19.53;60.27;99012.69;4222819;28;20054;-72
2022/05/10 08:56:46;;;;;;;;;;;;;;;19.57;60.55;99018.28;4223235;27;20384;-72
2022/05/10 08:58:59;;;;;;;5.63;4.90;;;;;;;19.63;55.30;99013.78;4221931;28;19923;-72
2022/05/10 09:01:02;;;;;;;;;;;;;;;19.74;54.48;99013.59;4223220;28;20467;-72
2022/05/10 09:03:21;;;;;;;6.93;5.50;;;;;;;19.83;54.17;99000.59;4222509;28;19919;-72
2022/05/10 09:05:31;;;;;;;7.38;5.60;;;;;;;20.04;53.66;99007.06;4222342;28;20222;-72
2022/05/10 09:07:46;;;;;;;6.13;5.00;;;;;;;20.02;54.18;99007.47;4222673;27;20044;-72
2022/05/10 09:09:57;;;;;;;5.38;4.88;;;;;;;20.14;51.89;98998.41;4221902;27;20067;-72
2022/05/10 09:12:09;;;;;;;6.03;4.60;;;;;;;20.13;47.76;98996.84;4228257;27;20031;-72
2022/05/10 09:14:12;;;;;;;8.27;4.43;;;;;;;20.12;49.89;99000.88;4222026;27;20370;-72
2022/05/10 09:16:14;;;;;;;4.55;3.50;;;;;;;20.06;43.74;98987.75;4221416;28;20378;-72
2022/05/10 09:18:23;;;;;;;5.40;3.83;;;;;;;20.11;41.91;98985.25;4227355;27;20528;-72
2022/05/10 09:20:24;;;;;;;4.55;3.20;;;;;;;20.08;44.35;98991.72;4222340;28;20407;-72
2022/05/10 09:22:37;;;;;;;5.20;3.72;;;;;;;20.20;47.42;98988.28;4222292;28;20423;-72
2022/05/10 09:24:49;;;;;;;5.43;3.80;;;;;;;20.47;45.29;98984.56;4222574;27;20035;-72
2022/05/10 09:26:53;;;;;;;3.47;3.00;;;;;;;20.47;44.13;98985.38;4226557;27;20055;-72
2022/05/10 09:29:24;;;;;;;4.93;3.17;;;;;;;20.44;43.03;98985.44;4231696;27;20113;-72
2022/05/10 09:36:31;;;;;;;3.60;3.30;;;;;;;20.57;43.59;98969.50;4221763;28;20035;-72
2022/05/10 09:38:42;;;;;;;6.70;3.67;;;;;;;20.64;44.26;98974.19;4221254;28;20039;-72
2022/05/10 09:40:46;;;;;;;6.32;3.83;;;;;;;20.87;44.90;98973.28;4221153;28;20525;-72
2022/05/10 09:42:50;;;;;;;4.53;3.22;;;;;;;20.90;42.04;98969.59;4227006;27;20455;-72
2022/05/10 09:45:18;;;;;;;4.28;2.92;;;;;;;21.20;38.44;98972.13;4221223;27;20081;-72
2022/05/10 09:47:19;;;;;;;4.15;3.13;;;;;;;21.33;42.08;98958.16;4214380;27;20814;-72
2022/05/10 09:49:37;;;;;;;4.82;3.45;;;;;;;21.40;39.94;98960.03;4219938;28;20051;-72
2022/05/10 09:51:41;;;;;;;4.20;3.45;;;;;;;21.56;41.13;98972.06;4227849;27;20131;-72
2022/05/10 09:53:41;;;;;;;5.43;3.90;;;;;;;21.70;38.78;98961.69;4219298;27;20046;-72